Time;durP1;ratioP1;P1;durP2;ratioP2;P2;SDS_P1;SDS_P2;PMS_P1;PMS_P2;Temp;Humidity;BMP_temperature;BMP_pressure;BME280_temperature;BME280_humidity;BME280_pressure;Samples;Min_cycle;Max_cycle;Signal;HPM_P1;HPM_P2
2023/01/07 00:00:29;;;;;;;;;;;;;;;5.79;68.86;99854.22;5023426;28;1586;-85
2023/01/07 00:02:56;;;;;;;;;;;;;;;5.82;68.95;99849.28;5032177;28;1189;-85
2023/01/07 00:05:24;;;;;;;;;;;;;;;5.89;68.48;99849.28;5042974;28;1910;-85
2023/01/07 00:07:51;;;;;;;;;;;;;;;5.76;69.06;99857.28;5040534;28;1808;-85
2023/01/07 00:10:18;;;;;;;;;;;;;;;5.77;69.03;99865.13;5026111;28;1597;-85
2023/01/07 00:12:45;;;;;;;;;;;;;;;5.84;68.92;99873.13;5043499;28;1654;-84
2023/01/07 00:15:12;;;;;;;;;;;;;;;5.81;68.93;99877.03;5024790;28;1277;-85
2023/01/07 00:17:39;;;;;;;;;;;;;;;5.94;68.46;99881.56;5027438;28;1343;-85
2023/01/07 00:20:05;;;;;;;;;;;;;;;5.85;68.64;99888.97;5040338;28;1373;-85
2023/01/07 00:22:32;;;;;;;;;;;;;;;5.84;68.80;99899.84;5026194;28;1663;-84
2023/01/07 00:24:59;;;;;;;;;;;;;;;5.88;68.55;99904.59;5042491;28;1977;-85
2023/01/07 00:27:27;;;;;;;;;;;;;;;5.92;68.76;99899.66;5044537;28;1640;-85
2023/01/07 00:29:54;;;;;;;;;;;;;;;5.96;68.48;99898.25;5041383;28;1576;-85
2023/01/07 00:32:46;;;;;;;;;;;;;;;5.90;68.69;99897.19;5047914;28;1415;-85
2023/01/07 00:35:21;;;;;;;;;;;;;;;5.86;68.90;99892.47;5045511;28;1622;-84
2023/01/07 00:37:51;;;;;;;;;;;;;;;5.86;68.87;99897.81;5050102;28;1590;-85
2023/01/07 00:40:18;;;;;;;;;;;;;;;5.81;69.26;99895.72;5044586;28;1636;-85
2023/01/07 00:43:00;;;;;;;;;;;;;;;5.96;68.60;99900.91;5048832;28;1408;-85
2023/01/07 00:45:27;;;;;;;;;;;;;;;6.02;68.26;99894.75;5044814;28;1918;-85
2023/01/07 00:47:54;;;;;;;;;;;;;;;5.94;68.78;99899.47;5046307;28;1539;-85
2023/01/07 00:50:21;;;;;;;;;;;;;;;5.88;68.90;99907.28;5030318;28;1343;-85
2023/01/07 00:52:48;;;;;;;;;;;;;;;5.95;68.56;99901.13;5049094;28;1565;-85
2023/01/07 00:55:14;;;;;;;;;;;;;;;6.00;68.47;99907.50;5047803;28;1672;-84
2023/01/07 00:57:41;;;;;;;;;;;;;;;6.12;68.27;99899.69;5029546;28;1852;-85
2023/01/07 01:00:08;;;;;;;;;;;;;;;6.10;68.16;99899.06;5046945;28;1738;-85
2023/01/07 01:02:36;;;;;;;;;;;;;;;6.16;67.91;99900.09;5046150;28;1005;-85
2023/01/07 01:05:04;;;;;;;;;;;;;;;6.17;67.98;99909.75;5046519;28;1952;-85
2023/01/07 01:07:30;;;;;;;;;;;;;;;6.14;67.86;99917.16;5035898;28;1412;-85
2023/01/07 01:09:57;;;;;;;;;;;;;;;6.12;68.19;99921.91;5046120;28;1354;-84
2023/01/07 01:12:24;;;;;;;;;;;;;;;6.03;68.46;99924.97;5045250;28;1389;-85
2023/01/07 01:14:51;;;;;;;;;;;;;;;6.17;68.15;99925.81;5027837;28;1417;-84
2023/01/07 01:17:18;;;;;;;;;;;;;;;6.21;67.84;99935.06;5046875;28;1675;-85
2023/01/07 01:19:45;;;;;;;;;;;;;;;6.14;68.24;99932.38;5041350;28;1502;-85
2023/01/07 01:22:12;;;;;;;;;;;;;;;6.23;67.97;99938.34;5026293;28;1610;-84
2023/01/07 01:24:39;;;;;;;;;;;;;;;6.15;68.27;99944.75;5030574;28;1910;-84
2023/01/07 01:27:05;;;;;;;;;;;;;;;6.12;68.18;99937.13;5042836;28;1643;-85
2023/01/07 01:29:33;;;;;;;;;;;;;;;6.11;68.31;99932.78;5027132;28;1858;-85
2023/01/07 01:32:01;;;;;;;;;;;;;;;6.13;68.14;99931.56;5026798;28;1552;-84
2023/01/07 01:34:28;;;;;;;;;;;;;;;6.18;67.80;99930.97;5042482;28;1437;-85
2023/01/07 01:36:56;;;;;;;;;;;;;;;6.20;67.89;99930.72;5045880;28;2052;-85
2023/01/07 01:39:22;;;;;;;;;;;;;;;6.13;68.21;99931.56;5044508;28;1564;-85
2023/01/07 01:41:49;;;;;;;;;;;;;;;6.11;68.50;99935.47;5026261;28;1584;-85
2023/01/07 01:44:16;;;;;;;;;;;;;;;6.20;68.15;99936.91;5025703;28;1709;-85
2023/01/07 01:46:44;;;;;;;;;;;;;;;6.19;67.95;99937.13;5025489;28;1906;-85
2023/01/07 01:49:10;;;;;;;;;;;;;;;6.24;68.07;99929.31;5028075;28;1427;-85
2023/01/07 01:51:37;;;;;;;;;;;;;;;6.14;68.16;99930.53;5032646;28;1368;-85
2023/01/07 01:54:03;;;;;;;;;;;;;;;6.15;68.49;99947.41;5031045;28;1603;-85
2023/01/07 01:56:31;;;;;;;;;;;;;;;6.24;67.88;99946.19;5029095;28;1655;-84
2023/01/07 01:58:57;;;;;;;;;;;;;;;6.20;67.96;99938.75;5047635;28;1840;-84
2023/01/07 02:01:25;;;;;;;;;;;;;;;6.21;67.98;99937.75;5029704;28;1795;-84
2023/01/07 02:03:51;;;;;;;;;;;;;;;6.15;68.26;99934.03;5027741;28;1446;-85
2023/01/07 02:06:20;;;;;;;;;;;;;;;6.11;68.50;99943.47;5046547;28;1894;-84
2023/01/07 02:08:47;;;;;;;;;;;;;;;6.16;68.51;99935.69;5040582;28;1687;-85
2023/01/07 02:11:14;;;;;;;;;;;;;;;6.17;68.20;99931.97;5028456;28;1607;-85
2023/01/07 02:13:42;;;;;;;;;;;;;;;6.19;68.35;99929.91;5026966;28;1427;-84
2023/01/07 02:16:08;;;;;;;;;;;;;;;6.24;68.05;99923.97;5045405;28;1548;-84
2023/01/07 02:18:35;;;;;;;;;;;;;;;6.14;68.28;99921.69;5026327;28;1419;-84
2023/01/07 02:21:02;;;;;;;;;;;;;;;6.16;68.22;99924.16;5023784;28;1399;-85
2023/01/07 02:23:29;;;;;;;;;;;;;;;6.10;68.42;99923.94;5027790;28;1652;-84
2023/01/07 02:25:56;;;;;;;;;;;;;;;6.13;68.52;99934.22;5027987;28;1906;-84
2023/01/07 02:28:23;;;;;;;;;;;;;;;6.12;68.50;99943.28;5038962;28;1412;-85
2023/01/07 02:30:51;;;;;;;;;;;;;;;6.10;68.48;99942.66;5025418;28;1539;-84
2023/01/07 02:33:19;;;;;;;;;;;;;;;6.15;68.46;99942.06;5042799;28;1917;-85
2023/01/07 02:35:45;;;;;;;;;;;;;;;6.09;68.80;99946.38;5024858;28;1504;-84
2023/01/07 02:38:12;;;;;;;;;;;;;;;6.09;68.72;99958.94;5025929;28;1704;-84
2023/01/07 02:40:41;;;;;;;;;;;;;;;6.09;68.87;99957.06;5024979;28;1737;-84
2023/01/07 02:43:07;;;;;;;;;;;;;;;6.13;68.72;99944.13;5047699;28;1436;-85
2023/01/07 02:45:34;;;;;;;;;;;;;;;6.05;68.87;99946.97;5025331;28;1910;-83
2023/01/07 02:48:01;;;;;;;;;;;;;;;6.11;68.69;99944.31;5045163;28;1850;-85
2023/01/07 02:50:28;;;;;;;;;;;;;;;6.08;68.81;99942.03;5042507;28;1417;-84
2023/01/07 02:52:55;;;;;;;;;;;;;;;6.10;68.82;99941.84;5026677;28;2033;-84
2023/01/07 02:55:21;;;;;;;;;;;;;;;6.05;68.95;99938.97;5042545;28;1378;-84
2023/01/07 02:57:50;;;;;;;;;;;;;;;6.08;68.72;99942.03;5026395;28;1450;-83
2023/01/07 03:00:16;;;;;;;;;;;;;;;5.96;69.21;99943.69;5043362;28;1636;-84
2023/01/07 03:02:43;;;;;;;;;;;;;;;6.03;69.17;99938.34;5027844;28;1408;-84
2023/01/07 03:05:10;;;;;;;;;;;;;;;6.07;68.78;99943.06;5044360;28;1910;-84
2023/01/07 03:07:36;;;;;;;;;;;;;;;5.97;69.16;99958.72;5044450;28;1701;-84
2023/01/07 03:10:03;;;;;;;;;;;;;;;6.04;68.95;99964.88;5039461;28;1516;-83
2023/01/07 03:12:30;;;;;;;;;;;;;;;5.96;68.84;99951.69;5027438;28;1456;-84
2023/01/07 03:14:57;;;;;;;;;;;;;;;6.05;68.81;99958.50;5037581;28;1393;-84
2023/01/07 03:17:25;;;;;;;;;;;;;;;5.97;69.14;99937.31;5040820;28;1520;-84
2023/01/07 03:19:53;;;;;;;;;;;;;;;5.92;69.22;99943.25;5024436;28;1391;-84
2023/01/07 03:22:21;;;;;;;;;;;;;;;5.95;69.22;99947.41;5042879;28;1622;-85
2023/01/07 03:24:47;;;;;;;;;;;;;;;5.90;69.29;99955.97;5046243;28;1518;-84
2023/01/07 03:27:14;;;;;;;;;;;;;;;5.55;69.03;99883.16;5027172;28;1906;-84
2023/01/07 03:29:42;;;;;;;;;;;;;;;5.98;69.28;99965.69;5044158;28;1041;-84
2023/01/07 03:32:09;;;;;;;;;;;;;;;5.98;69.15;99975.56;5026470;28;1329;-84
2023/01/07 03:34:35;;;;;;;;;;;;;;;5.97;69.20;99974.75;5024391;28;1419;-85
2023/01/07 03:37:02;;;;;;;;;;;;;;;5.97;69.12;99990.78;5037440;28;1891;-84
2023/01/07 03:39:29;;;;;;;;;;;;;;;5.90;69.47;99971.19;5042063;28;2137;-84
2023/01/07 03:44:40;;;;;;;;;;;;;;;5.94;69.15;99968.97;5044383;28;1245;-84
2023/01/07 03:47:07;;;;;;;;;;;;;;;5.89;69.30;99965.03;5023472;28;1914;-85
2023/01/07 03:49:35;;;;;;;;;;;;;;;5.95;69.20;99967.97;5022790;28;2002;-84
2023/01/07 03:52:01;;;;;;;;;;;;;;;6.03;68.80;99955.22;5025469;28;1382;-85
2023/01/07 03:54:28;;;;;;;;;;;;;;;5.97;69.08;99948.03;5043673;28;1898;-84
2023/01/07 03:56:54;;;;;;;;;;;;;;;5.90;69.23;99952.50;5041809;28;1568;-85
2023/01/07 03:59:23;;;;;;;;;;;;;;;6.02;68.89;99961.56;5026610;28;1279;-85
2023/01/07 04:01:50;;;;;;;;;;;;;;;5.92;69.15;99956.59;5039421;28;939;-84
2023/01/07 04:04:17;;;;;;;;;;;;;;;6.02;68.73;99969.59;5044615;28;1224;-84
2023/01/07 04:06:45;;;;;;;;;;;;;;;5.94;69.46;99971.63;5040103;28;1914;-84
2023/01/07 04:09:13;;;;;;;;;;;;;;;5.95;69.20;99967.97;5031708;28;1301;-85
2023/01/07 04:11:41;;;;;;;;;;;;;;;5.97;69.06;99977.44;5021945;28;1219;-84
2023/01/07 04:14:07;;;;;;;;;;;;;;;5.97;69.25;99981.91;5032328;28;1328;-84
2023/01/07 04:16:35;;;;;;;;;;;;;;;5.97;68.86;99997.97;5023584;28;1470;-85
2023/01/07 04:19:01;;;;;;;;;;;;;;;5.95;69.30;99994.69;5025407;28;1471;-85
2023/01/07 04:21:28;;;;;;;;;;;;;;;5.85;69.59;99998.56;5025033;28;1302;-84
2023/01/07 04:23:54;;;;;;;;;;;;;;;6.00;69.13;99997.56;5043338;28;1927;-85
2023/01/07 04:26:24;;;;;;;;;;;;;;;5.86;69.69;100000.19;5042566;28;1979;-84
2023/01/07 04:28:52;;;;;;;;;;;;;;;5.90;69.49;100004.09;5025092;28;1979;-84
2023/01/07 04:31:18;;;;;;;;;;;;;;;5.87;69.72;100015.19;5045252;28;1501;-84
2023/01/07 04:33:47;;;;;;;;;;;;;;;5.94;69.35;100006.38;5040790;28;1515;-84
2023/01/07 04:36:14;;;;;;;;;;;;;;;5.94;69.52;99998.38;5026816;28;1546;-84
2023/01/07 04:38:42;;;;;;;;;;;;;;;5.94;69.30;100003.72;5043715;28;1442;-84
2023/01/07 04:41:09;;;;;;;;;;;;;;;5.97;69.25;100006.81;5041984;28;1572;-84
2023/01/07 04:43:37;;;;;;;;;;;;;;;5.98;69.23;99999.63;5041596;28;1442;-84
2023/01/07 04:46:03;;;;;;;;;;;;;;;5.85;69.67;100003.91;5041203;28;1915;-84
2023/01/07 04:48:31;;;;;;;;;;;;;;;5.88;69.73;100005.31;5042018;28;1410;-84
2023/01/07 04:50:57;;;;;;;;;;;;;;;5.97;69.20;100008.66;5038744;28;1966;-85
2023/01/07 04:53:25;;;;;;;;;;;;;;;5.93;69.56;100021.59;5023369;28;1811;-84
2023/01/07 04:55:54;;;;;;;;;;;;;;;5.95;69.17;100019.56;5026196;28;1639;-84
2023/01/07 04:58:22;;;;;;;;;;;;;;;5.82;69.66;100020.31;5028071;28;1417;-84
2023/01/07 05:00:50;;;;;;;;;;;;;;;5.86;69.80;100013.56;5043188;28;1570;-85
2023/01/07 05:03:18;;;;;;;;;;;;;;;5.83;69.79;100005.13;5043263;28;1641;-84
2023/01/07 05:05:46;;;;;;;;;;;;;;;5.89;69.62;100004.31;5042739;28;1969;-84
2023/01/07 05:08:13;;;;;;;;;;;;;;;5.86;69.77;100004.72;5042832;28;1494;-84
2023/01/07 05:10:41;;;;;;;;;;;;;;;5.93;69.49;100008.25;5044272;28;1546;-84
2023/01/07 05:13:08;;;;;;;;;;;;;;;5.84;69.77;100012.91;5039363;28;1452;-84
2023/01/07 05:15:34;;;;;;;;;;;;;;;5.83;69.48;100011.28;5041506;28;1582;-84
2023/01/07 05:18:01;;;;;;;;;;;;;;;5.86;69.77;100002.03;5042089;28;1409;-84
2023/01/07 05:20:29;;;;;;;;;;;;;;;5.80;69.70;100017.03;5045572;28;1708;-84
2023/01/07 05:22:55;;;;;;;;;;;;;;;5.73;70.04;100007.34;5028947;28;1670;-85
2023/01/07 05:25:24;;;;;;;;;;;;;;;5.80;69.89;100001.00;5027957;28;1394;-84
2023/01/07 05:27:52;;;;;;;;;;;;;;;5.85;69.71;99993.22;5046420;28;1555;-85
2023/01/07 05:30:19;;;;;;;;;;;;;;;5.84;69.59;99996.06;5027627;28;1316;-84
2023/01/07 05:32:46;;;;;;;;;;;;;;;5.79;69.88;100012.69;5042222;28;1598;-85
2023/01/07 05:35:13;;;;;;;;;;;;;;;5.79;70.00;100010.03;5045783;28;1899;-84
2023/01/07 05:37:41;;;;;;;;;;;;;;;5.76;69.94;100002.41;5030003;28;1399;-85
2023/01/07 05:40:07;;;;;;;;;;;;;;;5.78;69.79;100005.72;5043748;28;1342;-84
2023/01/07 05:42:34;;;;;;;;;;;;;;;5.79;69.73;100007.34;5027698;28;1421;-85
2023/01/07 05:45:03;;;;;;;;;;;;;;;5.79;69.73;100007.34;5027381;28;1484;-83
2023/01/07 05:47:33;;;;;;;;;;;;;;;5.80;69.73;100016.22;5045603;28;2434;-84
2023/01/07 05:50:00;;;;;;;;;;;;;;;5.77;69.89;100000.59;5027432;28;1443;-84
2023/01/07 05:52:28;;;;;;;;;;;;;;;5.76;70.05;100005.06;5026990;28;1403;-85
2023/01/07 05:54:54;;;;;;;;;;;;;;;5.83;69.84;99992.56;5046009;28;1431;-84
2023/01/07 05:57:24;;;;;;;;;;;;;;;5.79;69.74;99988.63;5043768;28;1399;-85
2023/01/07 05:59:51;;;;;;;;;;;;;;;5.69;70.30;99981.03;5046191;28;1746;-84
2023/01/07 06:02:18;;;;;;;;;;;;;;;5.74;69.84;99987.63;5045534;28;1639;-85
2023/01/07 06:04:45;;;;;;;;;;;;;;;5.77;69.73;99984.56;5026779;28;1685;-85
2023/01/07 06:07:13;;;;;;;;;;;;;;;5.78;69.82;99991.53;5044984;28;1914;-84
2023/01/07 06:09:40;;;;;;;;;;;;;;;5.70;70.24;99993.34;5027305;28;1414;-84
2023/01/07 06:12:06;;;;;;;;;;;;;;;5.73;69.89;99994.78;5044298;28;1517;-85
2023/01/07 06:14:36;;;;;;;;;;;;;;;5.74;70.09;100015.16;5045412;28;1406;-83
2023/01/07 06:17:03;;;;;;;;;;;;;;;5.81;69.71;100013.31;5027827;28;1979;-84
2023/01/07 06:19:29;;;;;;;;;;;;;;;5.82;69.67;100019.47;5026124;28;1532;-84
2023/01/07 06:21:58;;;;;;;;;;;;;;;5.73;69.92;100018.84;5044158;28;1467;-85
2023/01/07 06:24:25;;;;;;;;;;;;;;;5.77;69.94;100025.44;5044245;28;935;-85
2023/01/07 06:26:51;;;;;;;;;;;;;;;5.68;70.09;100016.78;5044913;28;1979;-84
2023/01/07 06:29:18;;;;;;;;;;;;;;;5.79;69.92;100011.88;5045585;28;1492;-84
2023/01/07 06:31:46;;;;;;;;;;;;;;;5.77;69.81;100004.06;5028859;28;1335;-84
2023/01/07 06:34:12;;;;;;;;;;;;;;;5.74;69.82;100017.03;5043679;28;1010;-84
2023/01/07 06:36:39;;;;;;;;;;;;;;;5.71;70.11;100018.25;5043695;28;1558;-84
2023/01/07 06:39:07;;;;;;;;;;;;;;;5.78;70.00;100015.59;5028393;28;1328;-84
2023/01/07 06:41:34;;;;;;;;;;;;;;;5.73;69.95;100020.69;5028788;28;1353;-84
2023/01/07 06:44:02;;;;;;;;;;;;;;;5.78;69.79;100027.09;5046807;28;1627;-84
2023/01/07 06:46:29;;;;;;;;;;;;;;;5.81;69.80;100018.66;5022759;28;1910;-84
2023/01/07 06:48:57;;;;;;;;;;;;;;;5.90;69.52;100024.66;5046493;28;1402;-84
2023/01/07 06:51:25;;;;;;;;;;;;;;;5.75;69.93;100015.97;5026396;28;1617;-84
2023/01/07 06:53:52;;;;;;;;;;;;;;;5.78;69.99;100008.38;5028467;28;1216;-84
2023/01/07 06:56:19;;;;;;;;;;;;;;;5.85;69.46;100003.91;5026357;28;1376;-84
2023/01/07 06:58:47;;;;;;;;;;;;;;;5.90;69.27;100009.44;5026539;28;1201;-84
2023/01/07 07:01:14;;;;;;;;;;;;;;;5.78;69.70;100012.91;5041386;28;1954;-84
2023/01/07 07:03:43;;;;;;;;;;;;;;;5.85;69.69;100017.25;5028992;28;1841;-84
2023/01/07 07:06:11;;;;;;;;;;;;;;;5.94;69.33;100019.75;5033117;28;1906;-84
2023/01/07 07:08:39;;;;;;;;;;;;;;;5.87;69.61;100009.03;5024843;28;1388;-84
2023/01/07 07:11:05;;;;;;;;;;;;;;;5.96;69.47;100017.72;5046766;28;1977;-84
2023/01/07 07:13:33;;;;;;;;;;;;;;;5.90;69.34;100022.78;5043178;28;1535;-84
2023/01/07 07:16:00;;;;;;;;;;;;;;;5.94;69.33;100017.09;5040521;28;1440;-84
2023/01/07 07:18:29;;;;;;;;;;;;;;;5.90;69.29;100028.16;5026616;28;1807;-84
2023/01/07 07:20:57;;;;;;;;;;;;;;;5.86;69.56;100032.25;5034887;28;965;-84
2023/01/07 07:23:25;;;;;;;;;;;;;;;6.01;69.12;100036.66;5043593;28;948;-84
2023/01/07 07:25:52;;;;;;;;;;;;;;;5.90;69.24;100028.16;5021529;28;1338;-84
2023/01/07 07:28:20;;;;;;;;;;;;;;;5.96;69.05;100031.91;5045052;28;1908;-84
2023/01/07 07:30:47;;;;;;;;;;;;;;;5.88;69.47;100032.88;5045960;28;1783;-84
2023/01/07 07:33:17;;;;;;;;;;;;;;;5.85;69.85;100022.59;5026313;28;1582;-84
2023/01/07 07:35:45;;;;;;;;;;;;;;;5.88;69.36;100030.22;5025386;28;1348;-84
2023/01/07 07:38:11;;;;;;;;;;;;;;;5.83;70.00;100029.16;5025140;28;1264;-85
2023/01/07 07:40:38;;;;;;;;;;;;;;;5.88;69.54;100045.41;5042661;28;976;-84
2023/01/07 07:43:06;;;;;;;;;;;;;;;5.94;69.11;100041.97;5024430;28;1611;-84
2023/01/07 07:45:33;;;;;;;;;;;;;;;5.92;69.35;100044.81;5037904;28;1414;-84
2023/01/07 07:48:00;;;;;;;;;;;;;;;5.89;69.56;100050.56;5024585;28;2029;-84
2023/01/07 07:50:27;;;;;;;;;;;;;;;5.96;69.41;100055.94;5043299;28;1619;-84
2023/01/07 07:52:56;;;;;;;;;;;;;;;5.97;69.42;100049.59;5041019;28;1894;-85
2023/01/07 07:55:22;;;;;;;;;;;;;;;5.92;69.52;100055.50;5019666;28;1406;-84
2023/01/07 07:57:50;;;;;;;;;;;;;;;5.83;69.76;100050.56;5024436;28;1578;-85
2023/01/07 08:00:18;;;;;;;;;;;;;;;5.83;69.69;100045.22;5021538;28;1880;-85
2023/01/07 08:02:47;;;;;;;;;;;;;;;5.86;69.80;100039.47;5040539;28;1482;-84
2023/01/07 08:05:15;;;;;;;;;;;;;;;5.81;69.99;100041.91;5024921;28;1391;-84
2023/01/07 08:07:42;;;;;;;;;;;;;;;5.83;69.61;100038.00;5038781;28;1938;-84
2023/01/07 08:10:09;;;;;;;;;;;;;;;5.87;69.66;100038.41;5024591;28;1419;-85
2023/01/07 08:12:35;;;;;;;;;;;;;;;5.88;69.49;100054.28;5025196;28;1449;-84
2023/01/07 08:15:02;;;;;;;;;;;;;;;5.79;69.92;100044.75;5023629;28;1306;-84
2023/01/07 08:17:29;;;;;;;;;;;;;;;5.83;69.74;100050.56;5040367;28;1898;-84
2023/01/07 08:19:56;;;;;;;;;;;;;;;5.88;69.78;100053.41;5024347;28;1821;-83
2023/01/07 08:22:23;;;;;;;;;;;;;;;5.89;69.56;100058.59;5041558;28;1461;-83
2023/01/07 08:24:50;;;;;;;;;;;;;;;5.88;69.70;100056.94;5023126;28;1866;-83
2023/01/07 08:27:17;;;;;;;;;;;;;;;5.77;70.21;100056.69;5042297;28;1914;-83
2023/01/07 08:29:44;;;;;;;;;;;;;;;5.87;69.70;100073.16;5022247;28;1400;-84
2023/01/07 08:32:11;;;;;;;;;;;;;;;5.89;69.47;100073.81;5037797;28;1827;-83
2023/01/07 08:34:37;;;;;;;;;;;;;;;5.85;69.76;100068.03;5041103;28;1745;-84
2023/01/07 08:37:04;;;;;;;;;;;;;;;5.78;69.80;100075.19;5025965;28;1445;-84
2023/01/07 08:39:31;;;;;;;;;;;;;;;5.75;70.12;100086.28;5022099;28;1554;-83
2023/01/07 08:41:59;;;;;;;;;;;;;;;5.80;69.96;100075.81;5041660;28;1359;-85
2023/01/07 08:44:25;;;;;;;;;;;;;;;5.81;69.82;100084.66;5041373;28;1402;-84
2023/01/07 08:46:53;;;;;;;;;;;;;;;5.75;69.89;100080.13;5041078;28;1913;-84
2023/01/07 08:49:19;;;;;;;;;;;;;;;5.77;69.96;100067.38;5023109;28;1995;-83
2023/01/07 08:51:47;;;;;;;;;;;;;;;5.79;70.02;100071.47;5040132;28;1579;-84
2023/01/07 08:54:14;;;;;;;;;;;;;;;5.77;70.07;100078.06;5025372;28;1385;-84
2023/01/07 08:56:41;;;;;;;;;;;;;;;5.72;70.10;100069.81;5027028;28;1866;-84
2023/01/07 08:59:09;;;;;;;;;;;;;;;5.72;70.33;100080.53;5045574;28;1380;-84
2023/01/07 09:01:36;;;;;;;;;;;;;;;5.79;70.02;100070.66;5028809;28;1996;-85
2023/01/07 09:04:03;;;;;;;;;;;;;;;5.74;70.14;100078.47;5028073;28;1459;-83
2023/01/07 09:06:29;;;;;;;;;;;;;;;5.73;70.13;100079.47;5040316;28;1985;-84
2023/01/07 09:08:56;;;;;;;;;;;;;;;5.73;70.15;100071.47;5045601;28;1372;-84
2023/01/07 09:11:22;;;;;;;;;;;;;;;5.71;70.27;100079.69;5025947;28;2075;-83
2023/01/07 09:13:50;;;;;;;;;;;;;;;5.66;70.44;100079.47;5045642;28;1298;-84
2023/01/07 09:16:17;;;;;;;;;;;;;;;5.63;70.57;100069.19;5043108;28;1448;-85
2023/01/07 09:18:44;;;;;;;;;;;;;;;5.66;70.33;100068.78;5045063;28;1363;-84
2023/01/07 09:21:10;;;;;;;;;;;;;;;5.68;70.44;100072.09;5025799;28;1578;-84
2023/01/07 09:23:39;;;;;;;;;;;;;;;5.69;70.13;100071.88;5026152;28;1489;-84
2023/01/07 09:26:07;;;;;;;;;;;;;;;5.69;70.37;100071.03;5045601;28;1835;-84
2023/01/07 09:28:35;;;;;;;;;;;;;;;5.66;70.33;100066.91;5041789;28;1918;-85
2023/01/07 09:31:03;;;;;;;;;;;;;;;5.63;70.38;100061.16;5032893;28;1599;-85
2023/01/07 09:33:30;;;;;;;;;;;;;;;5.78;69.81;100064.50;5041313;28;1906;-84
2023/01/07 09:35:57;;;;;;;;;;;;;;;5.70;70.07;100060.16;5045018;28;1594;-85
2023/01/07 09:38:23;;;;;;;;;;;;;;;5.64;70.42;100049.44;5029019;28;1846;-84
2023/01/07 09:40:50;;;;;;;;;;;;;;;5.66;70.49;100053.56;5026759;28;1869;-84
2023/01/07 09:43:17;;;;;;;;;;;;;;;5.78;69.85;100053.81;5024258;28;1672;-84
2023/01/07 09:45:45;;;;;;;;;;;;;;;5.76;70.02;100039.81;5026795;28;1618;-84
2023/01/07 09:48:12;;;;;;;;;;;;;;;5.77;69.97;100048.69;5044306;28;1910;-85
2023/01/07 09:50:39;;;;;;;;;;;;;;;5.68;70.42;100061.41;5043393;28;1910;-84
2023/01/07 09:53:05;;;;;;;;;;;;;;;5.75;69.92;100059.56;5026845;28;1889;-85
2023/01/07 09:55:32;;;;;;;;;;;;;;;5.74;70.11;100057.91;5027585;28;1801;-84
2023/01/07 09:57:59;;;;;;;;;;;;;;;5.71;70.27;100058.31;5025327;28;1735;-84
2023/01/07 10:00:26;;;;;;;;;;;;;;;5.77;69.88;100060.19;5044113;28;1640;-85
2023/01/07 10:02:52;;;;;;;;;;;;;;;5.77;69.95;100060.19;5025331;28;1860;-85
2023/01/07 10:05:20;;;;;;;;;;;;;;;5.77;70.01;100057.53;5024141;28;1809;-85
2023/01/07 10:07:46;;;;;;;;;;;;;;;5.69;70.16;100057.69;5028136;28;1910;-85
2023/01/07 10:10:13;;;;;;;;;;;;;;;5.76;69.95;100045.16;5023471;28;1769;-85
2023/01/07 10:12:40;;;;;;;;;;;;;;;5.80;69.73;100048.28;5025633;28;1504;-85
2023/01/07 10:15:07;;;;;;;;;;;;;;;5.81;69.70;100044.56;5043686;28;1421;-84
2023/01/07 10:17:34;;;;;;;;;;;;;;;5.72;70.22;100033.25;5028850;28;1907;-85
2023/01/07 10:20:01;;;;;;;;;;;;;;;5.73;70.25;100031.38;5024966;28;1755;-85
2023/01/07 10:22:29;;;;;;;;;;;;;;;5.72;70.25;100021.72;5044888;28;1560;-85
2023/01/07 10:24:56;;;;;;;;;;;;;;;5.69;70.06;100021.09;5044710;28;1470;-84
2023/01/07 10:27:23;;;;;;;;;;;;;;;5.74;70.03;100015.16;5042921;28;1910;-85
2023/01/07 10:29:50;;;;;;;;;;;;;;;5.69;70.31;100017.59;5041548;28;1417;-85
2023/01/07 10:32:18;;;;;;;;;;;;;;;5.74;70.17;100025.03;5042281;28;1800;-84
2023/01/07 10:34:46;;;;;;;;;;;;;;;5.70;70.23;100028.06;5042079;28;1853;-84
2023/01/07 10:37:13;;;;;;;;;;;;;;;5.73;70.22;100020.69;5028519;28;2140;-85
2023/01/07 10:39:40;;;;;;;;;;;;;;;5.71;70.26;100018.25;5037578;28;1469;-84
2023/01/07 10:42:08;;;;;;;;;;;;;;;5.73;70.14;100016.16;5042412;28;1876;-84
2023/01/07 10:44:36;;;;;;;;;;;;;;;5.68;70.36;100022.13;5045162;28;1509;-85
2023/01/07 10:47:03;;;;;;;;;;;;;;;5.66;70.28;100018.84;5044596;28;1985;-85
2023/01/07 10:49:30;;;;;;;;;;;;;;;5.72;70.20;100006.53;5024029;28;2007;-84
2023/01/07 10:51:57;;;;;;;;;;;;;;;5.71;70.17;100002.22;5037015;28;1761;-84
2023/01/07 10:54:24;;;;;;;;;;;;;;;5.71;70.35;99996.88;5044409;28;1829;-84
2023/01/07 10:56:53;;;;;;;;;;;;;;;5.75;70.25;100000.78;5040776;28;2053;-85
2023/01/07 10:59:19;;;;;;;;;;;;;;;5.69;70.29;99991.72;5025833;28;1715;-84
2023/01/07 11:01:46;;;;;;;;;;;;;;;5.73;70.21;99994.78;5041024;28;1867;-84
2023/01/07 11:04:13;;;;;;;;;;;;;;;5.66;70.29;99988.63;5025870;28;1859;-84
2023/01/07 11:06:39;;;;;;;;;;;;;;;5.66;70.40;99984.09;5040859;28;1964;-85
2023/01/07 11:09:08;;;;;;;;;;;;;;;5.69;70.32;99985.53;5039930;28;2251;-84
2023/01/07 11:11:34;;;;;;;;;;;;;;;5.65;70.55;99987.81;5045689;28;1851;-85
2023/01/07 11:14:01;;;;;;;;;;;;;;;5.63;70.40;99992.50;5040239;28;1974;-84
2023/01/07 11:16:29;;;;;;;;;;;;;;;5.53;70.86;99978.72;5039650;28;1612;-85
2023/01/07 11:18:58;;;;;;;;;;;;;;;5.56;70.96;99974.81;5041669;28;1488;-84
2023/01/07 11:21:26;;;;;;;;;;;;;;;5.65;70.37;99966.44;5028167;28;1864;-85
2023/01/07 11:23:53;;;;;;;;;;;;;;;5.61;70.64;99956.34;5040306;28;1725;-84
2023/01/07 11:26:21;;;;;;;;;;;;;;;5.59;70.47;99943.19;5034447;28;1773;-84
2023/01/07 11:28:48;;;;;;;;;;;;;;;5.61;70.44;99945.66;5042152;28;2069;-84
2023/01/07 11:31:14;;;;;;;;;;;;;;;5.59;70.80;99939.69;5044816;28;1605;-84
2023/01/07 11:33:41;;;;;;;;;;;;;;;5.58;70.87;99938.84;5043008;28;1720;-83
2023/01/07 11:36:08;;;;;;;;;;;;;;;5.62;70.51;99940.13;5043784;28;1915;-84
2023/01/07 11:38:35;;;;;;;;;;;;;;;5.67;70.45;99932.28;5022982;28;1902;-84
2023/01/07 11:41:01;;;;;;;;;;;;;;;5.54;70.82;99940.28;5026132;28;1672;-84
2023/01/07 11:43:30;;;;;;;;;;;;;;;5.57;70.82;99937.22;5039538;28;2760;-84
2023/01/07 11:45:57;;;;;;;;;;;;;;;5.66;70.47;99935.19;5041624;28;1674;-84
2023/01/07 11:48:24;;;;;;;;;;;;;;;5.56;70.86;99932.06;5021761;28;1910;-83
2023/01/07 11:50:51;;;;;;;;;;;;;;;5.58;70.67;99933.50;5040242;28;2006;-82
2023/01/07 11:53:18;;;;;;;;;;;;;;;5.49;71.01;99928.56;5037562;28;1659;-83
2023/01/07 11:55:45;;;;;;;;;;;;;;;5.53;70.94;99924.47;5024700;28;1570;-83
2023/01/07 11:58:12;;;;;;;;;;;;;;;5.59;70.56;99921.81;5021527;28;1845;-83
2023/01/07 12:00:39;;;;;;;;;;;;;;;5.58;70.64;99917.47;5024030;28;1703;-83
2023/01/07 12:03:06;;;;;;;;;;;;;;;5.64;70.48;99907.84;5019789;28;2082;-83
2023/01/07 12:05:34;;;;;;;;;;;;;;;5.57;70.67;99910.50;5026375;28;1417;-83
2023/01/07 12:08:02;;;;;;;;;;;;;;;5.59;70.79;99910.28;5024622;28;1973;-83
2023/01/07 12:10:29;;;;;;;;;;;;;;;5.58;70.65;99906.78;5040691;28;1796;-83
2023/01/07 12:12:58;;;;;;;;;;;;;;;5.54;70.93;99891.41;5041828;28;1785;-83
2023/01/07 12:15:28;;;;;;;;;;;;;;;5.55;70.83;99891.19;5041327;28;1850;-82
2023/01/07 12:17:55;;;;;;;;;;;;;;;5.60;70.62;99894.06;5038842;28;1620;-83
2023/01/07 12:20:23;;;;;;;;;;;;;;;5.63;70.50;99888.31;5024715;28;1795;-83
2023/01/07 12:22:51;;;;;;;;;;;;;;;5.66;70.64;99889.75;5043136;28;948;-83
2023/01/07 12:25:18;;;;;;;;;;;;;;;5.61;70.49;99876.19;5042788;28;1769;-84
2023/01/07 12:27:47;;;;;;;;;;;;;;;5.61;70.56;99877.00;5027347;28;1910;-84
2023/01/07 12:30:13;;;;;;;;;;;;;;;5.66;70.52;99879.09;5045429;28;1836;-83
2023/01/07 12:32:41;;;;;;;;;;;;;;;5.67;70.35;99878.03;5028051;28;1652;-83
2023/01/07 12:35:08;;;;;;;;;;;;;;;5.68;70.32;99877.84;5027730;28;1702;-82
2023/01/07 12:37:34;;;;;;;;;;;;;;;5.64;70.53;99873.94;5046263;28;1696;-84
2023/01/07 12:40:01;;;;;;;;;;;;;;;5.60;70.63;99866.53;5046322;28;1770;-84
2023/01/07 12:42:27;;;;;;;;;;;;;;;5.66;70.28;99868.41;5045226;28;1669;-84
2023/01/07 12:44:54;;;;;;;;;;;;;;;5.65;70.58;99862.22;5047007;28;1809;-84
2023/01/07 12:47:20;;;;;;;;;;;;;;;5.60;70.55;99854.00;5026665;28;1577;-84
2023/01/07 12:49:47;;;;;;;;;;;;;;;5.61;70.66;99841.47;5046823;28;1918;-84
2023/01/07 12:52:14;;;;;;;;;;;;;;;5.65;70.41;99838.19;5046560;28;1879;-84
2023/01/07 12:54:41;;;;;;;;;;;;;;;5.66;70.51;99825.66;5028448;28;2227;-84
2023/01/07 12:57:08;;;;;;;;;;;;;;;5.67;70.47;99828.09;5046000;28;1694;-83
2023/01/07 12:59:34;;;;;;;;;;;;;;;5.63;70.45;99824.19;5046188;28;1781;-84
2023/01/07 13:02:02;;;;;;;;;;;;;;;5.65;70.51;99829.34;5041384;28;1844;-84
2023/01/07 13:04:28;;;;;;;;;;;;;;;5.60;70.50;99826.47;5042820;28;1981;-83